createdAt,value
2019-05-16T00:00:22.557Z,0.00
2019-05-16T00:01:22.477Z,0.00
2019-05-16T00:02:22.398Z,0.00
2019-05-16T00:03:22.320Z,0.00
2019-05-16T00:04:22.241Z,0.00
2019-05-16T00:05:22.165Z,0.00
2019-05-16T00:06:22.082Z,0.00
2019-05-16T00:07:22.008Z,0.00
2019-05-16T00:08:21.926Z,0.00
2019-05-16T00:09:21.845Z,0.00
2019-05-16T00:10:21.768Z,0.00
2019-05-16T00:11:21.690Z,0.00
2019-05-16T00:12:21.610Z,0.00
2019-05-16T00:13:21.531Z,0.00
2019-05-16T00:14:21.452Z,0.00
2019-05-16T00:15:21.373Z,0.00
2019-05-16T00:16:21.295Z,0.00
2019-05-16T00:17:21.215Z,0.00
2019-05-16T00:18:21.138Z,0.00
2019-05-16T00:19:21.163Z,0.00
2019-05-16T00:20:20.981Z,0.00
2019-05-16T00:21:20.901Z,0.00
2019-05-16T00:22:20.822Z,0.00
2019-05-16T00:23:20.743Z,0.00
2019-05-16T00:24:20.665Z,0.00
2019-05-16T00:25:20.585Z,0.00
2019-05-16T00:26:20.506Z,0.00
2019-05-16T00:27:20.428Z,0.00
2019-05-16T00:28:20.349Z,0.00
2019-05-16T00:29:20.270Z,0.00
2019-05-16T00:30:20.192Z,0.00
2019-05-16T00:31:20.113Z,0.00
2019-05-16T00:32:20.042Z,0.00
2019-05-16T00:33:19.953Z,0.00
2019-05-16T00:34:19.876Z,0.00
2019-05-16T00:35:19.797Z,0.00
2019-05-16T00:36:19.720Z,0.00
2019-05-16T00:37:22.962Z,0.00
2019-05-16T00:38:19.562Z,0.00
2019-05-16T00:39:19.482Z,0.00
2019-05-16T00:40:19.404Z,0.00
2019-05-16T00:41:19.325Z,0.00
2019-05-16T00:42:19.246Z,0.00
2019-05-16T00:43:19.170Z,0.00
2019-05-16T00:44:19.088Z,0.00
2019-05-16T00:45:19.017Z,0.00
2019-05-16T00:46:20.073Z,0.00
2019-05-16T00:47:18.854Z,0.00
2019-05-16T00:48:18.775Z,0.00
2019-05-16T00:49:18.801Z,0.00
2019-05-16T00:50:18.625Z,0.00
2019-05-16T00:51:18.551Z,0.00
2019-05-16T00:52:18.551Z,0.00
2019-05-16T00:53:18.378Z,0.00
2019-05-16T00:54:18.701Z,0.00
2019-05-16T00:55:18.223Z,0.00
2019-05-16T00:56:18.717Z,0.00
2019-05-16T00:57:18.853Z,0.00
2019-05-16T00:58:18.761Z,0.00
2019-05-16T00:59:18.330Z,0.00
2019-05-16T01:00:18.207Z,0.00
2019-05-16T01:01:18.933Z,0.00
2019-05-16T01:02:18.205Z,0.00
2019-05-16T01:04:10.080Z,0.00
2019-05-16T01:05:10.002Z,0.00
2019-05-16T01:06:18.751Z,0.00
2019-05-16T01:07:09.841Z,0.00
2019-05-16T01:08:09.763Z,0.00
2019-05-16T01:09:09.683Z,0.00
2019-05-16T01:10:09.605Z,0.00
2019-05-16T01:11:09.528Z,0.00
2019-05-16T01:12:09.445Z,0.00
2019-05-16T01:13:09.368Z,0.00
2019-05-16T01:14:09.290Z,0.00
2019-05-16T01:15:09.213Z,0.00
2019-05-16T01:16:09.133Z,0.00
2019-05-16T01:17:09.052Z,0.00
2019-05-16T01:18:08.975Z,0.00
2019-05-16T01:19:08.895Z,0.00
2019-05-16T01:20:08.873Z,0.00
2019-05-16T01:22:01.226Z,0.00
2019-05-16T01:23:01.147Z,0.00
2019-05-16T01:24:01.068Z,0.00
2019-05-16T01:25:00.990Z,0.00
2019-05-16T01:26:00.909Z,0.00
2019-05-16T01:27:00.831Z,0.00
2019-05-16T01:28:00.752Z,0.00
2019-05-16T01:29:00.675Z,0.00
2019-05-16T01:30:00.594Z,0.00
2019-05-16T01:31:00.517Z,0.00
2019-05-16T01:32:00.437Z,0.00
2019-05-16T01:33:00.360Z,0.00
2019-05-16T01:34:00.281Z,0.00
2019-05-16T01:35:00.200Z,0.00
2019-05-16T01:36:00.123Z,0.00
2019-05-16T01:37:00.042Z,0.00
2019-05-16T01:37:59.963Z,0.00
2019-05-16T01:38:59.885Z,0.00
2019-05-16T01:39:59.806Z,0.00
2019-05-16T01:40:59.732Z,0.00
2019-05-16T01:41:59.649Z,0.00
2019-05-16T01:42:59.569Z,0.00
2019-05-16T01:43:59.494Z,0.00
2019-05-16T01:44:59.513Z,0.00
2019-05-16T01:45:59.333Z,0.00
2019-05-16T01:46:59.256Z,0.00
2019-05-16T01:47:59.177Z,0.00
2019-05-16T01:48:59.098Z,0.00
2019-05-16T01:49:59.019Z,0.00
2019-05-16T01:50:58.940Z,0.00
2019-05-16T01:51:58.861Z,0.00
2019-05-16T01:52:58.784Z,0.00
2019-05-16T01:53:58.703Z,0.00
2019-05-16T01:54:58.839Z,0.00
2019-05-16T01:55:58.548Z,0.00
2019-05-16T01:56:59.469Z,0.00
2019-05-16T01:57:58.561Z,0.00
2019-05-16T01:58:58.404Z,0.00
2019-05-16T01:59:58.919Z,0.00
2019-05-16T02:01:11.661Z,0.00
2019-05-16T02:02:00.672Z,0.00
2019-05-16T02:02:58.030Z,0.00
2019-05-16T02:03:58.727Z,0.00
2019-05-16T02:04:59.058Z,0.00
2019-05-16T02:05:58.569Z,0.00
2019-05-16T02:06:58.491Z,0.00
2019-05-16T02:07:58.364Z,0.00
2019-05-16T02:08:58.012Z,0.00
2019-05-16T02:09:58.206Z,0.00
2019-05-16T02:10:58.381Z,0.00
2019-05-16T02:11:58.891Z,0.00
2019-05-16T02:12:58.138Z,0.00
2019-05-16T02:13:58.557Z,0.00
2019-05-16T02:14:58.764Z,0.00
2019-05-16T02:15:59.060Z,0.00
2019-05-16T02:16:58.032Z,0.00
2019-05-16T02:17:58.705Z,0.00
2019-05-16T02:18:58.742Z,0.00
2019-05-16T02:19:57.785Z,0.00
2019-05-16T02:21:00.964Z,0.00
2019-05-16T02:21:56.499Z,0.00
2019-05-16T02:22:58.450Z,0.00
2019-05-16T02:23:58.511Z,0.00
2019-05-16T02:25:43.747Z,0.00
2019-05-16T02:26:43.667Z,0.00
2019-05-16T02:27:43.588Z,0.00
2019-05-16T02:28:43.919Z,0.00
2019-05-16T02:29:43.430Z,0.00
2019-05-16T02:30:43.351Z,0.00
2019-05-16T02:31:43.270Z,0.00
2019-05-16T02:32:43.192Z,0.00
2019-05-16T02:33:43.120Z,0.00
2019-05-16T02:34:43.035Z,0.00
2019-05-16T02:35:42.954Z,0.00
2019-05-16T02:36:42.877Z,0.00
2019-05-16T02:37:42.824Z,0.00
2019-05-16T02:38:42.718Z,0.00
2019-05-16T02:39:42.639Z,0.00
2019-05-16T02:40:42.559Z,0.00
2019-05-16T02:41:46.062Z,0.00
2019-05-16T02:42:42.629Z,0.00
2019-05-16T02:43:42.370Z,0.00
2019-05-16T02:44:42.242Z,0.00
2019-05-16T02:45:42.168Z,0.00
2019-05-16T02:46:42.231Z,0.00
2019-05-16T02:47:42.946Z,0.00
2019-05-16T02:48:41.931Z,0.00
2019-05-16T02:49:42.296Z,0.00
2019-05-16T02:50:41.767Z,0.00
2019-05-16T02:51:41.724Z,0.00
2019-05-16T02:52:41.862Z,0.00
2019-05-16T02:53:41.907Z,0.00
2019-05-16T02:54:41.560Z,0.00
2019-05-16T02:55:41.369Z,0.00
2019-05-16T02:56:41.935Z,0.00
2019-05-16T02:57:41.879Z,0.00
2019-05-16T02:58:44.500Z,0.00
2019-05-16T02:59:41.735Z,0.00
2019-05-16T03:00:42.579Z,0.00
2019-05-16T03:01:41.143Z,0.00
2019-05-16T03:02:41.926Z,0.00
2019-05-16T03:03:44.050Z,0.00
2019-05-16T03:04:44.403Z,0.00
2019-05-16T03:05:41.883Z,0.00
2019-05-16T03:06:41.298Z,0.00
2019-05-16T03:08:41.162Z,0.00
2019-05-16T03:09:41.078Z,0.00
2019-05-16T03:10:41.316Z,4.00
2019-05-16T03:11:41.935Z,4.00
2019-05-16T03:12:41.126Z,4.00
2019-05-16T03:13:42.319Z,0.00
2019-05-16T03:14:41.872Z,0.00
2019-05-16T03:15:40.734Z,4.00
2019-05-16T03:16:41.761Z,4.00
2019-05-16T03:17:40.326Z,8.00
2019-05-16T03:18:41.374Z,4.00
2019-05-16T03:19:41.808Z,8.00
2019-05-16T03:20:40.783Z,4.00
2019-05-16T03:21:41.323Z,8.00
2019-05-16T03:22:40.918Z,8.00
2019-05-16T03:23:42.092Z,12.00
2019-05-16T03:24:42.063Z,12.00
2019-05-16T03:25:41.885Z,16.00
2019-05-16T03:26:40.832Z,16.00
2019-05-16T03:27:41.389Z,16.00
2019-05-16T03:28:41.280Z,20.00
2019-05-16T03:29:41.580Z,24.00
2019-05-16T03:30:44.245Z,24.00
2019-05-16T03:31:43.749Z,28.00
2019-05-16T03:32:43.901Z,32.00
2019-05-16T03:33:48.279Z,32.00
2019-05-16T03:34:43.333Z,36.00
2019-05-16T03:35:44.011Z,40.00
2019-05-16T03:36:43.360Z,44.00
2019-05-16T03:37:54.368Z,48.00
2019-05-16T03:38:41.070Z,48.00
2019-05-16T03:39:40.545Z,56.00
2019-05-16T03:40:41.014Z,52.00
2019-05-16T03:41:37.722Z,56.00
2019-05-16T03:42:41.371Z,56.00
2019-05-16T03:43:37.564Z,60.00
2019-05-16T03:44:40.884Z,68.00
2019-05-16T03:45:41.402Z,72.00
2019-05-16T03:46:37.328Z,76.00
2019-05-16T03:47:37.249Z,84.00
2019-05-16T03:48:37.172Z,92.00
2019-05-16T03:49:37.089Z,100.00
2019-05-16T03:50:37.011Z,112.00
2019-05-16T03:51:36.931Z,124.00
2019-05-16T03:52:42.400Z,128.00
2019-05-16T03:53:36.772Z,124.00
2019-05-16T03:54:36.701Z,132.00
2019-05-16T03:55:36.613Z,132.00
2019-05-16T03:56:36.535Z,140.00
2019-05-16T03:57:36.456Z,148.00
2019-05-16T03:58:36.377Z,164.00
2019-05-16T03:59:36.296Z,184.00
2019-05-16T04:00:36.221Z,200.00
2019-05-16T04:01:36.139Z,212.00
2019-05-16T04:02:36.061Z,228.00
2019-05-16T04:03:41.395Z,252.00
2019-05-16T04:04:35.909Z,288.00
2019-05-16T04:05:35.821Z,320.00
2019-05-16T04:06:35.745Z,352.00
2019-05-16T04:07:35.698Z,376.00
2019-05-16T04:08:35.584Z,400.00
2019-05-16T04:09:35.511Z,424.00
2019-05-16T04:10:35.427Z,448.00
2019-05-16T04:11:35.357Z,468.00
2019-05-16T04:12:35.270Z,484.00
2019-05-16T04:13:35.189Z,508.00
2019-05-16T04:14:35.114Z,536.00
2019-05-16T04:15:35.031Z,564.00
2019-05-16T04:16:34.953Z,584.00
2019-05-16T04:17:34.879Z,604.00
2019-05-16T04:18:34.794Z,632.00
2019-05-16T04:19:34.715Z,664.00
2019-05-16T04:20:34.637Z,696.00
2019-05-16T04:21:34.557Z,724.00
2019-05-16T04:22:34.478Z,744.00
2019-05-16T04:23:34.398Z,776.00
2019-05-16T04:24:34.320Z,824.00
2019-05-16T04:25:34.241Z,860.00
2019-05-16T04:26:36.126Z,896.00
2019-05-16T04:27:34.081Z,916.00
2019-05-16T04:28:34.008Z,932.00
2019-05-16T04:29:33.929Z,940.00
2019-05-16T04:30:33.846Z,944.00
2019-05-16T04:31:33.768Z,952.00
2019-05-16T04:32:33.689Z,968.00
2019-05-16T04:33:33.614Z,984.00
2019-05-16T04:34:33.531Z,1004.00
2019-05-16T04:35:33.451Z,1024.00
2019-05-16T04:36:33.402Z,1036.00
2019-05-16T04:37:33.305Z,1044.00
2019-05-16T04:38:40.802Z,1056.00
2019-05-16T04:39:33.136Z,1068.00
2019-05-16T04:40:33.057Z,1072.00
2019-05-16T04:41:32.981Z,1084.00
2019-05-16T04:42:32.902Z,1092.00
2019-05-16T04:43:32.821Z,1100.00
2019-05-16T04:44:32.742Z,1108.00
2019-05-16T04:45:32.663Z,1120.00
2019-05-16T04:46:32.586Z,1140.00
2019-05-16T04:47:32.505Z,1152.00
2019-05-16T04:48:32.430Z,1168.00
2019-05-16T04:49:32.351Z,1180.00
2019-05-16T04:50:32.269Z,1200.00
2019-05-16T04:51:32.192Z,1228.00
2019-05-16T04:52:32.113Z,1256.00
2019-05-16T04:53:32.036Z,1288.00
2019-05-16T04:54:31.954Z,1324.00
2019-05-16T04:55:31.875Z,1360.00
2019-05-16T04:56:31.798Z,1396.00
2019-05-16T04:57:31.719Z,1432.00
2019-05-16T04:58:31.969Z,1460.00
2019-05-16T04:59:31.562Z,1472.00
2019-05-16T05:00:32.054Z,1484.00
2019-05-16T05:01:31.410Z,1504.00
2019-05-16T05:02:31.328Z,1536.00
2019-05-16T05:04:33.789Z,1600.00
2019-05-16T05:05:33.334Z,1612.00
2019-05-16T05:06:31.414Z,1620.00
2019-05-16T05:07:31.473Z,1632.00
2019-05-16T05:08:48.709Z,1676.00
2019-05-16T05:09:31.550Z,1704.00
2019-05-16T05:10:31.334Z,1748.00
2019-05-16T05:11:30.814Z,1816.00
2019-05-16T05:12:31.448Z,1896.00
2019-05-16T05:13:30.790Z,1972.00
2019-05-16T05:14:30.855Z,2020.00
2019-05-16T05:15:30.695Z,2060.00
2019-05-16T05:16:30.709Z,2084.00
2019-05-16T05:17:30.767Z,2132.00
2019-05-16T05:18:30.440Z,2212.00
2019-05-16T05:19:30.658Z,2300.00
2019-05-16T05:20:30.464Z,2384.00
2019-05-16T05:21:31.361Z,2468.00
2019-05-16T05:22:30.441Z,2564.00
2019-05-16T05:23:30.247Z,2676.00
2019-05-16T05:24:30.284Z,2792.00
2019-05-16T05:25:30.860Z,2920.00
2019-05-16T05:26:30.563Z,3040.00
2019-05-16T05:27:30.258Z,3112.00
2019-05-16T05:28:29.921Z,3120.00
2019-05-16T05:29:30.685Z,3080.00
2019-05-16T05:30:30.345Z,3004.00
2019-05-16T05:31:34.368Z,2896.00
2019-05-16T05:32:30.546Z,2736.00
2019-05-16T05:33:30.342Z,2564.00
2019-05-16T05:34:30.454Z,2392.00
2019-05-16T05:35:31.077Z,2236.00
2019-05-16T05:36:30.079Z,2128.00
2019-05-16T05:37:29.835Z,2068.00
2019-05-16T05:38:30.823Z,2060.00
2019-05-16T05:39:30.328Z,2076.00
2019-05-16T05:40:29.719Z,2120.00
2019-05-16T05:41:30.250Z,2184.00
2019-05-16T05:42:30.510Z,2256.00
2019-05-16T05:43:30.318Z,2348.00
2019-05-16T05:44:28.050Z,2428.00
2019-05-16T05:45:27.971Z,2500.00
2019-05-16T05:46:27.895Z,2540.00
2019-05-16T05:47:30.502Z,2588.00
2019-05-16T05:48:30.573Z,2676.00
2019-05-16T05:49:30.042Z,2800.00
2019-05-16T05:50:27.586Z,2804.00
2019-05-16T05:51:29.991Z,2740.00
2019-05-16T05:52:30.059Z,2712.00
2019-05-16T05:53:29.831Z,2708.00
2019-05-16T05:54:27.277Z,2752.00
2019-05-16T05:55:27.202Z,2800.00
2019-05-16T05:56:27.120Z,2860.00
2019-05-16T05:57:27.044Z,2896.00
2019-05-16T05:58:26.966Z,2904.00
2019-05-16T05:59:26.888Z,2912.00
2019-05-16T06:00:26.823Z,2936.00
2019-05-16T06:01:26.752Z,2988.00
2019-05-16T06:02:26.657Z,3036.00
2019-05-16T06:03:26.581Z,3136.00
2019-05-16T06:04:26.502Z,3256.00
2019-05-16T06:05:26.425Z,3408.00
2019-05-16T06:06:26.354Z,3556.00
2019-05-16T06:07:26.271Z,3736.00
2019-05-16T06:08:26.192Z,3952.00
2019-05-16T06:09:29.327Z,4132.00
2019-05-16T06:10:26.040Z,4260.00
2019-05-16T06:11:25.962Z,4308.00
2019-05-16T06:12:25.885Z,4304.00
2019-05-16T06:13:25.908Z,4292.00
2019-05-16T06:14:25.731Z,4276.00
2019-05-16T06:15:25.653Z,4280.00
2019-05-16T06:16:25.579Z,4376.00
2019-05-16T06:17:25.499Z,4544.00
2019-05-16T06:18:25.422Z,4760.00
2019-05-16T06:19:25.346Z,4916.00
2019-05-16T06:20:25.271Z,4920.00
2019-05-16T06:21:25.195Z,4732.00
2019-05-16T06:22:25.118Z,4488.00
2019-05-16T06:23:25.037Z,4244.00
2019-05-16T06:24:24.961Z,4096.00
2019-05-16T06:25:24.887Z,4048.00
2019-05-16T06:26:24.814Z,4088.00
2019-05-16T06:27:24.730Z,4132.00
2019-05-16T06:28:24.653Z,4180.00
2019-05-16T06:29:24.585Z,4224.00
2019-05-16T06:30:24.524Z,4284.00
2019-05-16T06:31:24.422Z,4384.00
2019-05-16T06:32:24.347Z,4444.00
2019-05-16T06:33:24.270Z,4440.00
2019-05-16T06:34:24.242Z,4408.00
2019-05-16T06:35:24.254Z,4372.00
2019-05-16T06:36:24.038Z,4376.00
2019-05-16T06:37:23.962Z,4392.00
2019-05-16T06:38:23.886Z,4500.00
2019-05-16T06:39:23.808Z,4608.00
2019-05-16T06:40:23.733Z,4724.00
2019-05-16T06:41:23.656Z,4896.00
2019-05-16T06:42:23.578Z,5124.00
2019-05-16T06:43:23.500Z,5336.00
2019-05-16T06:44:23.425Z,5408.00
2019-05-16T06:45:23.351Z,5456.00
2019-05-16T06:46:23.289Z,5456.00
2019-05-16T06:47:23.308Z,5364.00
2019-05-16T06:48:23.117Z,5216.00
2019-05-16T06:49:23.041Z,5076.00
2019-05-16T06:50:22.964Z,4968.00
2019-05-16T06:51:22.887Z,4940.00
2019-05-16T06:52:22.813Z,4972.00
2019-05-16T06:53:22.734Z,5072.00
2019-05-16T06:54:22.658Z,5252.00
2019-05-16T06:55:22.580Z,5484.00
2019-05-16T06:56:22.504Z,5692.00
2019-05-16T06:57:22.427Z,5872.00
2019-05-16T06:59:17.462Z,5996.00
2019-05-16T07:04:26.452Z,5616.00
2019-05-16T07:06:35.967Z,5480.00
2019-05-16T07:11:24.767Z,6152.00
2019-05-16T07:12:24.688Z,6048.00
2019-05-16T07:13:24.611Z,5948.00
2019-05-16T07:14:28.159Z,5884.00
2019-05-16T07:15:24.459Z,5860.00
2019-05-16T07:16:24.381Z,5684.00
2019-05-16T07:17:24.304Z,5504.00
2019-05-16T07:19:21.721Z,5184.00
2019-05-16T07:20:21.673Z,4912.00
2019-05-16T07:24:50.495Z,4276.00
2019-05-16T07:25:50.536Z,4320.00
2019-05-16T07:26:50.237Z,4304.00
2019-05-16T07:27:51.063Z,4336.00
2019-05-16T07:33:10.830Z,4880.00
2019-05-16T07:34:10.763Z,4872.00
2019-05-16T07:35:09.765Z,4708.00
2019-05-16T07:40:51.555Z,4624.00
2019-05-16T07:41:51.012Z,4628.00
2019-05-16T07:42:51.161Z,4588.00
2019-05-16T07:43:50.842Z,4468.00
2019-05-16T07:44:50.788Z,4364.00
2019-05-16T07:45:51.525Z,4332.00
2019-05-16T07:46:51.610Z,4332.00
2019-05-16T07:47:53.133Z,4220.00
2019-05-16T07:48:51.849Z,4172.00
2019-05-16T07:55:43.501Z,4456.00
2019-05-16T07:56:46.452Z,4424.00
2019-05-16T07:58:45.863Z,4592.00
2019-05-16T07:59:45.765Z,4508.00
2019-05-16T08:07:55.154Z,4392.00
2019-05-16T08:08:55.074Z,4256.00
2019-05-16T08:10:54.917Z,3736.00
2019-05-16T08:11:54.840Z,3680.00
2019-05-16T08:12:54.765Z,4012.00
2019-05-16T08:13:54.685Z,4392.00
2019-05-16T08:14:54.610Z,4548.00
2019-05-16T08:15:54.529Z,4692.00
2019-05-16T08:16:54.452Z,4836.00
2019-05-16T08:17:54.375Z,4840.00
2019-05-16T08:18:54.298Z,4824.00
2019-05-16T08:19:54.220Z,4960.00
2019-05-16T08:20:54.146Z,5244.00
2019-05-16T08:21:54.064Z,5624.00
2019-05-16T08:22:53.987Z,6016.00
2019-05-16T08:23:53.913Z,6468.00
2019-05-16T08:24:53.831Z,6844.00
2019-05-16T08:25:53.753Z,7224.00
2019-05-16T08:26:53.676Z,7876.00
2019-05-16T08:27:53.599Z,8516.00
2019-05-16T08:28:53.521Z,8916.00
2019-05-16T08:29:53.444Z,9192.00
2019-05-16T08:30:53.369Z,9392.00
2019-05-16T08:31:53.288Z,9272.00
2019-05-16T08:32:53.243Z,9156.00
2019-05-16T08:34:53.056Z,9312.00
2019-05-16T08:35:52.979Z,9348.00
2019-05-16T08:36:52.910Z,9684.00
2019-05-16T08:37:52.834Z,9632.00
2019-05-16T08:38:52.747Z,9604.00
2019-05-16T08:39:52.673Z,9460.00
2019-05-16T08:41:08.006Z,9152.00
2019-05-16T08:41:52.515Z,8596.00
2019-05-16T08:42:52.456Z,8228.00
2019-05-16T09:10:37.862Z,9056.00
2019-05-16T09:16:19.100Z,3760.00
2019-05-16T09:17:18.005Z,3704.00
2019-05-16T09:18:17.775Z,3684.00
2019-05-16T09:19:18.872Z,3764.00
2019-05-16T09:21:08.900Z,3676.00
2019-05-16T09:22:08.591Z,3672.00
2019-05-16T09:23:08.507Z,3636.00
2019-05-16T09:24:08.430Z,3628.00
2019-05-16T09:25:23.623Z,3620.00
2019-05-16T09:26:08.359Z,3684.00
2019-05-16T09:27:12.937Z,3680.00
2019-05-16T09:29:10.668Z,3728.00
2019-05-16T09:39:17.718Z,4060.00
2019-05-16T09:40:20.413Z,4128.00
2019-05-16T10:01:10.196Z,3948.00
2019-05-16T10:04:36.766Z,4084.00
2019-05-16T10:22:28.808Z,11820.00
2019-05-16T10:26:17.218Z,12932.00
2019-05-16T10:29:48.454Z,11308.00
2019-05-16T10:30:43.727Z,10732.00
2019-05-16T10:31:51.663Z,10388.00
2019-05-16T10:32:47.813Z,10052.00
2019-05-16T10:33:47.709Z,10176.00
2019-05-16T10:37:57.599Z,9616.00
2019-05-16T10:38:59.167Z,10184.00
2019-05-16T10:39:56.402Z,10988.00
2019-05-16T10:40:56.561Z,11956.00
2019-05-16T10:41:57.350Z,12776.00
2019-05-16T10:42:57.932Z,12668.00
2019-05-16T10:43:56.826Z,12516.00
2019-05-16T10:44:57.699Z,11896.00
2019-05-16T10:45:55.330Z,12048.00
2019-05-16T10:46:55.256Z,11600.00
2019-05-16T10:47:55.181Z,11692.00
2019-05-16T10:48:57.602Z,13708.00
2019-05-16T10:49:56.428Z,13964.00
2019-05-16T10:50:57.433Z,13268.00
2019-05-16T10:51:57.556Z,14384.00
2019-05-16T10:53:20.576Z,13888.00
2019-05-16T10:54:09.018Z,14916.00
2019-05-16T10:54:59.210Z,14740.00
2019-05-16T10:55:56.889Z,14820.00
2019-05-16T10:56:57.371Z,12648.00
2019-05-16T10:57:56.639Z,12896.00
2019-05-16T10:59:27.521Z,13040.00
2019-05-16T11:00:06.786Z,13012.00
2019-05-16T11:01:27.500Z,9872.00
2019-05-16T11:01:56.767Z,11044.00
2019-05-16T11:02:54.183Z,18336.00
2019-05-16T11:03:56.647Z,16764.00
2019-05-16T11:05:08.242Z,12204.00
2019-05-16T11:06:03.074Z,11312.00
2019-05-16T11:06:53.789Z,13136.00
2019-05-16T11:07:53.835Z,9248.00
2019-05-16T11:08:53.643Z,9612.00
2019-05-16T11:09:59.351Z,22656.00
2019-05-16T11:10:53.523Z,12068.00
2019-05-16T11:11:53.424Z,7308.00
2019-05-16T11:12:55.721Z,11596.00
2019-05-16T11:13:53.279Z,14848.00
2019-05-16T11:14:53.203Z,18848.00
2019-05-16T11:15:53.131Z,12624.00
2019-05-16T11:16:53.064Z,9904.00
2019-05-16T11:17:52.987Z,8420.00
2019-05-16T11:18:52.915Z,9260.00
2019-05-16T11:19:52.840Z,11800.00
2019-05-16T11:20:52.806Z,8492.00
2019-05-16T11:21:52.694Z,19512.00
2019-05-16T11:22:52.622Z,13800.00
2019-05-16T11:23:52.547Z,10648.00
2019-05-16T11:24:52.476Z,11476.00
2019-05-16T11:25:55.250Z,11812.00
2019-05-16T11:26:52.330Z,10540.00
2019-05-16T11:27:52.260Z,7956.00
2019-05-16T11:28:52.184Z,44608.00
2019-05-16T11:29:52.111Z,9824.00
2019-05-16T11:30:52.113Z,8440.00
2019-05-16T11:31:51.965Z,31008.00
2019-05-16T11:32:52.499Z,33024.00
2019-05-16T11:35:50.320Z,33920.00
2019-05-16T11:36:50.266Z,43584.00
2019-05-16T11:37:50.381Z,52768.00
2019-05-16T11:38:57.592Z,21920.00
2019-05-16T11:39:50.032Z,23808.00
2019-05-16T11:40:50.370Z,23232.00
2019-05-16T11:41:49.888Z,26496.00
2019-05-16T11:43:05.447Z,28384.00
2019-05-16T11:43:49.746Z,20256.00
2019-05-16T11:45:47.174Z,15600.00
2019-05-16T11:46:49.059Z,16016.00
2019-05-16T11:47:47.241Z,17344.00
2019-05-16T11:48:48.995Z,18944.00
2019-05-16T11:49:47.608Z,22080.00
2019-05-16T11:50:47.993Z,27552.00
2019-05-16T11:51:47.369Z,101536.00
2019-05-16T11:52:47.763Z,92992.00
2019-05-16T11:53:47.653Z,93472.00
2019-05-16T11:54:49.157Z,68160.00
2019-05-16T11:55:54.429Z,91104.00
2019-05-16T11:56:46.505Z,98208.00
2019-05-16T11:57:47.551Z,109728.00
2019-05-16T11:58:47.367Z,119744.00
2019-05-16T11:59:47.085Z,119200.00
2019-05-16T12:00:49.156Z,99808.00
2019-05-16T12:01:47.542Z,83584.00
2019-05-16T12:02:47.867Z,119840.00
2019-05-16T12:03:46.847Z,99040.00
2019-05-16T12:04:47.199Z,87936.00
2019-05-16T12:06:46.835Z,32768.00
2019-05-16T12:07:48.170Z,51104.00
2019-05-16T12:08:46.730Z,81536.00
2019-05-16T12:09:50.084Z,122080.00
2019-05-16T12:10:47.158Z,119680.00
2019-05-16T12:11:45.391Z,120800.00
2019-05-16T12:12:45.322Z,117664.00
2019-05-16T12:13:47.420Z,112032.00
2019-05-16T12:14:45.192Z,109664.00
2019-05-16T12:15:45.125Z,102944.00
2019-05-16T12:16:47.327Z,67616.00
2019-05-16T12:17:59.157Z,103296.00
2019-05-16T12:18:46.354Z,104256.00
2019-05-16T12:19:47.556Z,85792.00
2019-05-16T12:20:44.848Z,93248.00
2019-05-16T12:21:44.739Z,98976.00
2019-05-16T12:22:44.676Z,100800.00
2019-05-16T12:23:47.132Z,97504.00
2019-05-16T12:24:44.722Z,75008.00
2019-05-16T12:25:47.756Z,87232.00
2019-05-16T12:26:44.423Z,97600.00
2019-05-16T12:27:44.363Z,97376.00
2019-05-16T12:28:44.296Z,46784.00
2019-05-16T12:29:50.127Z,37312.00
2019-05-16T12:30:44.169Z,39136.00
2019-05-16T12:31:57.190Z,51488.00
2019-05-16T12:32:44.040Z,44128.00
2019-05-16T12:33:43.977Z,51200.00
2019-05-16T12:34:46.215Z,83872.00
2019-05-16T12:35:43.857Z,98016.00
2019-05-16T12:36:43.784Z,99776.00
2019-05-16T12:37:43.750Z,62432.00
2019-05-16T12:38:43.654Z,62944.00
2019-05-16T12:39:43.588Z,97280.00
2019-05-16T12:40:43.530Z,81536.00
2019-05-16T12:41:43.478Z,41632.00
2019-05-16T12:42:43.548Z,106400.00
2019-05-16T12:43:48.731Z,109280.00
2019-05-16T12:44:43.262Z,109760.00
2019-05-16T12:45:43.205Z,63424.00
2019-05-16T12:46:43.133Z,69920.00
2019-05-16T12:47:43.066Z,41120.00
2019-05-16T12:48:43.002Z,34528.00
2019-05-16T12:49:42.935Z,53824.00
2019-05-16T12:50:42.871Z,107712.00
2019-05-16T12:51:42.805Z,110144.00
2019-05-16T12:52:42.740Z,111424.00
2019-05-16T12:53:42.674Z,108448.00
2019-05-16T12:54:42.610Z,106400.00
2019-05-16T12:55:42.543Z,26816.00
2019-05-16T12:56:42.480Z,27360.00
2019-05-16T12:57:42.415Z,103104.00
2019-05-16T12:58:42.753Z,101184.00
2019-05-16T12:59:51.925Z,99648.00
2019-05-16T13:00:44.024Z,102976.00
2019-05-16T13:01:42.151Z,108128.00
2019-05-16T13:02:42.156Z,112992.00
2019-05-16T13:03:42.023Z,72384.00
2019-05-16T13:04:41.958Z,109696.00
2019-05-16T13:05:41.894Z,103488.00
2019-05-16T13:06:41.832Z,101984.00
2019-05-16T13:08:41.702Z,16440.00
2019-05-16T13:09:41.637Z,108288.00
2019-05-16T13:10:41.575Z,101760.00
2019-05-16T13:11:41.511Z,99296.00
2019-05-16T13:12:41.449Z,99136.00
2019-05-16T13:13:41.387Z,92416.00
2019-05-16T13:14:41.335Z,75776.00
2019-05-16T13:15:42.351Z,64000.00
2019-05-16T13:16:41.404Z,61056.00
2019-05-16T13:17:41.541Z,60576.00
2019-05-16T13:18:41.074Z,61568.00
2019-05-16T13:19:44.088Z,64256.00
2019-05-16T13:20:41.427Z,69920.00
2019-05-16T13:21:40.896Z,72320.00
2019-05-16T13:23:40.765Z,36480.00
2019-05-16T13:24:40.703Z,30592.00
2019-05-16T13:25:40.642Z,47584.00
2019-05-16T13:26:43.199Z,48064.00
2019-05-16T13:27:43.138Z,72256.00
2019-05-16T13:30:07.990Z,24544.00
2019-05-16T13:31:08.033Z,30240.00
2019-05-16T13:32:07.923Z,29760.00
2019-05-16T13:33:07.816Z,24960.00
2019-05-16T13:34:07.736Z,25408.00
2019-05-16T13:35:07.961Z,24800.00
2019-05-16T13:36:07.798Z,21344.00
2019-05-16T13:37:07.829Z,19232.00
2019-05-16T13:38:08.058Z,19168.00
2019-05-16T13:39:08.173Z,19840.00
2019-05-16T13:40:08.097Z,18592.00
2019-05-16T13:41:07.712Z,17152.00
2019-05-16T13:42:08.137Z,15264.00
2019-05-16T13:43:09.414Z,13092.00
2019-05-16T13:44:17.799Z,11772.00
2019-05-16T13:45:07.153Z,10872.00
2019-05-16T13:46:07.323Z,11160.00
2019-05-16T13:47:07.674Z,12196.00
2019-05-16T13:48:08.142Z,10504.00
2019-05-16T13:49:07.351Z,9452.00
2019-05-16T13:50:11.639Z,8500.00
2019-05-16T13:51:14.957Z,7828.00
2019-05-16T13:52:07.240Z,7512.00
2019-05-16T13:53:07.873Z,7216.00
2019-05-16T13:54:09.097Z,7084.00
2019-05-16T13:55:07.047Z,7244.00
2019-05-16T13:56:48.766Z,8288.00
2019-05-16T13:57:48.695Z,9152.00
2019-05-16T13:58:48.627Z,9916.00
2019-05-16T13:59:48.557Z,10100.00
2019-05-16T14:00:48.487Z,9948.00
2019-05-16T14:01:48.520Z,10428.00
2019-05-16T14:02:48.353Z,12316.00
2019-05-16T14:03:48.425Z,15592.00
2019-05-16T14:04:48.219Z,18720.00
2019-05-16T14:05:48.142Z,20576.00
2019-05-16T14:07:48.275Z,19680.00
2019-05-16T14:08:47.928Z,18752.00
2019-05-16T14:09:47.862Z,18912.00
2019-05-16T14:10:49.066Z,19168.00
2019-05-16T14:11:47.816Z,19648.00
2019-05-16T14:12:50.091Z,20352.00
2019-05-16T14:13:47.602Z,20832.00
2019-05-16T14:14:47.954Z,20864.00
2019-05-16T14:15:47.543Z,21312.00
2019-05-16T14:16:47.366Z,21952.00
2019-05-16T14:17:48.959Z,23648.00
2019-05-16T14:18:47.228Z,23584.00
2019-05-16T14:19:47.927Z,21440.00
2019-05-16T14:20:47.088Z,18688.00
2019-05-16T14:21:47.924Z,17184.00
2019-05-16T14:22:46.950Z,16832.00
2019-05-16T14:23:53.176Z,17216.00
2019-05-16T14:24:48.253Z,16480.00
2019-05-16T14:25:48.127Z,13704.00
2019-05-16T14:26:46.671Z,10908.00
2019-05-16T14:27:47.504Z,9736.00
2019-05-16T14:28:48.863Z,8604.00
2019-05-16T14:29:47.664Z,7236.00
2019-05-16T14:30:46.884Z,6476.00
2019-05-16T14:31:46.928Z,5876.00
2019-05-16T14:32:50.454Z,5252.00
2019-05-16T14:33:47.381Z,4896.00
2019-05-16T14:34:50.565Z,4700.00
2019-05-16T14:35:47.239Z,4704.00
2019-05-16T14:36:47.422Z,4508.00
2019-05-16T14:37:46.915Z,4444.00
2019-05-16T14:38:46.853Z,4388.00
2019-05-16T14:39:48.725Z,4412.00
2019-05-16T14:40:49.936Z,4488.00
2019-05-16T14:41:46.991Z,4620.00